PWSweather.com
Personal Weather Stations
Station Observations
KMIEASTT1
Tawas Bay, East Tawas, MI 48730

Tawas BayEast Tawas, MI 48730

Lat: 44.28, Lon: -83.48

Elevation: 600

Station Type: Davis VantagePro

http://www.tawasbayweather.com

High Low Average
Temperature 51.9°F11.1°C 37.9°F3.3°C 44.8°F7.1°C
Dew Point 46.3°F7.9°C 36.3°F2.4°C 41.5°F5.3°C
Winds 15.0 mph 24.1 kmh Calm Calm 6.0 mph SW9.7 kmh SW
Wind Gusts 16.0 mph25.7 kmh 1.0 mph1.6 kmh 8.0 mph12.9 kmh
Humidity 95% 75% 88%
Pressure 30.23 in1023.7 mb 30.13 in1020.3 mb -
Precipitation 0.00 in0.0 mm - -
Hour Temp Dew Point Humidity Winds Wind Gusts Pressure Precip Precip Rate Daily Precip Total
12:01 AM 47.3°F8.5°C 42.7°F5.9°C 84% 7.0 mph SW11.3 kmh SW 8.0 mph12.9 kmh 30.16 in1021.3 mb 0.00 in0.0 mm 0.00 in/hr0.0 mm/hr 0.00 in0.0 mm
12:15 AM 47.1°F8.4°C 43.1°F6.2°C 86% 7.0 mph SSW11.3 kmh SSW 8.0 mph12.9 kmh 30.16 in1021.3 mb 0.00 in0.0 mm 0.00 in/hr0.0 mm/hr 0.00 in0.0 mm
12:30 AM 46.8°F8.2°C 42.8°F6.0°C 86% 7.0 mph SW11.3 kmh SW 9.0 mph14.5 kmh 30.16 in1021.3 mb 0.00 in0.0 mm 0.00 in/hr0.0 mm/hr 0.00 in0.0 mm
12:45 AM 46.6°F8.1°C 43.2°F6.2°C 88% 7.0 mph SW11.3 kmh SW 9.0 mph14.5 kmh 30.16 in1021.3 mb 0.00 in0.0 mm 0.00 in/hr0.0 mm/hr 0.00 in0.0 mm
01:01 AM 46.4°F8.0°C 42.8°F6.0°C 87% 7.0 mph SSW11.3 kmh SSW 10.0 mph16.1 kmh 30.16 in1021.3 mb 0.00 in0.0 mm 0.00 in/hr0.0 mm/hr 0.00 in0.0 mm
01:15 AM 46.3°F7.9°C 43.0°F6.1°C 88% 6.0 mph SSW9.7 kmh SSW 9.0 mph14.5 kmh 30.16 in1021.3 mb 0.00 in0.0 mm 0.00 in/hr0.0 mm/hr 0.00 in0.0 mm
01:30 AM 46.3°F7.9°C 43.0°F6.1°C 88% 8.0 mph SW12.9 kmh SW 9.0 mph14.5 kmh 30.17 in1021.7 mb 0.00 in0.0 mm 0.00 in/hr0.0 mm/hr 0.00 in0.0 mm
01:45 AM 46.1°F7.8°C 43.0°F6.1°C 89% 6.0 mph SW9.7 kmh SW 8.0 mph12.9 kmh 30.17 in1021.7 mb 0.00 in0.0 mm 0.00 in/hr0.0 mm/hr 0.00 in0.0 mm
02:01 AM 45.6°F7.6°C 42.8°F6.0°C 90% 4.0 mph SW6.4 kmh SW 8.0 mph12.9 kmh 30.16 in1021.3 mb 0.00 in0.0 mm 0.00 in/hr0.0 mm/hr 0.00 in0.0 mm
02:15 AM 45.3°F7.4°C 42.6°F5.9°C 90% 7.0 mph SSW11.3 kmh SSW 8.0 mph12.9 kmh 30.16 in1021.3 mb 0.00 in0.0 mm 0.00 in/hr0.0 mm/hr 0.00 in0.0 mm
02:30 AM 44.8°F7.1°C 42.1°F5.6°C 90% 5.0 mph SW8.0 kmh SW 9.0 mph14.5 kmh 30.17 in1021.7 mb 0.00 in0.0 mm 0.00 in/hr0.0 mm/hr 0.00 in0.0 mm
02:45 AM 44.2°F6.8°C 41.5°F5.3°C 90% 6.0 mph SW9.7 kmh SW 7.0 mph11.3 kmh 30.17 in1021.7 mb 0.00 in0.0 mm 0.00 in/hr0.0 mm/hr 0.00 in0.0 mm
03:01 AM 44.0°F6.7°C 41.6°F5.3°C 91% 7.0 mph SW11.3 kmh SW 7.0 mph11.3 kmh 30.17 in1021.7 mb 0.00 in0.0 mm 0.00 in/hr0.0 mm/hr 0.00 in0.0 mm
03:15 AM 43.5°F6.4°C 40.8°F4.9°C 90% 8.0 mph WSW12.9 kmh WSW 9.0 mph14.5 kmh 30.17 in1021.7 mb 0.00 in0.0 mm 0.00 in/hr0.0 mm/hr 0.00 in0.0 mm
03:30 AM 42.4°F5.8°C 40.0°F4.4°C 91% 2.0 mph WSW3.2 kmh WSW 4.0 mph6.4 kmh 30.17 in1021.7 mb 0.00 in0.0 mm 0.00 in/hr0.0 mm/hr 0.00 in0.0 mm
03:45 AM 41.3°F5.2°C 38.6°F3.7°C 90% 3.0 mph NW4.8 kmh NW 3.0 mph4.8 kmh 30.18 in1022.0 mb 0.00 in0.0 mm 0.00 in/hr0.0 mm/hr 0.00 in0.0 mm
04:01 AM 40.0°F4.4°C 37.9°F3.3°C 92% 3.0 mph WSW4.8 kmh WSW 4.0 mph6.4 kmh 30.19 in1022.4 mb 0.00 in0.0 mm 0.00 in/hr0.0 mm/hr 0.00 in0.0 mm
04:15 AM 40.4°F4.7°C 38.8°F3.8°C 94% 5.0 mph WSW8.0 kmh WSW 9.0 mph14.5 kmh 30.19 in1022.4 mb 0.00 in0.0 mm 0.00 in/hr0.0 mm/hr 0.00 in0.0 mm
04:30 AM 39.6°F4.2°C 38.0°F3.3°C 94% 5.0 mph W8.0 kmh W 7.0 mph11.3 kmh 30.19 in1022.4 mb 0.00 in0.0 mm 0.00 in/hr0.0 mm/hr 0.00 in0.0 mm
04:45 AM 39.3°F4.1°C 37.7°F3.2°C 94% 3.0 mph WSW4.8 kmh WSW 6.0 mph9.7 kmh 30.19 in1022.4 mb 0.00 in0.0 mm 0.00 in/hr0.0 mm/hr 0.00 in0.0 mm
05:01 AM 38.9°F3.8°C 37.3°F2.9°C 94% 2.0 mph WSW3.2 kmh WSW 5.0 mph8.0 kmh 30.20 in1022.7 mb 0.00 in0.0 mm 0.00 in/hr0.0 mm/hr 0.00 in0.0 mm
05:15 AM 38.5°F3.6°C 36.9°F2.7°C 94% 2.0 mph WSW3.2 kmh WSW 5.0 mph8.0 kmh 30.20 in1022.7 mb 0.00 in0.0 mm 0.00 in/hr0.0 mm/hr 0.00 in0.0 mm
05:30 AM 38.4°F3.6°C 36.8°F2.7°C 94% 2.0 mph W3.2 kmh W 5.0 mph8.0 kmh 30.20 in1022.7 mb 0.00 in0.0 mm 0.00 in/hr0.0 mm/hr 0.00 in0.0 mm
05:45 AM 38.8°F3.8°C 37.2°F2.9°C 94% 5.0 mph W8.0 kmh W 7.0 mph11.3 kmh 30.21 in1023.0 mb 0.00 in0.0 mm 0.00 in/hr0.0 mm/hr 0.00 in0.0 mm
06:01 AM 38.5°F3.6°C 36.9°F2.7°C 94% 2.0 mph NW3.2 kmh NW 3.0 mph4.8 kmh 30.21 in1023.0 mb 0.00 in0.0 mm 0.00 in/hr0.0 mm/hr 0.00 in0.0 mm
06:15 AM 38.3°F3.5°C 36.7°F2.6°C 94% 4.0 mph W6.4 kmh W 4.0 mph6.4 kmh 30.21 in1023.0 mb 0.00 in0.0 mm 0.00 in/hr0.0 mm/hr 0.00 in0.0 mm
06:30 AM 38.1°F3.4°C 36.5°F2.5°C 94% 3.0 mph WSW4.8 kmh WSW 4.0 mph6.4 kmh 30.21 in1023.0 mb 0.00 in0.0 mm 0.00 in/hr0.0 mm/hr 0.00 in0.0 mm
06:45 AM 38.0°F3.3°C 36.4°F2.4°C 94% 1.0 mph WNW1.6 kmh WNW 4.0 mph6.4 kmh 30.21 in1023.0 mb 0.00 in0.0 mm 0.00 in/hr0.0 mm/hr 0.00 in0.0 mm
07:01 AM 37.9°F3.3°C 36.3°F2.4°C 94% 1.0 mph WNW1.6 kmh WNW 2.0 mph3.2 kmh 30.21 in1023.0 mb 0.00 in0.0 mm 0.00 in/hr0.0 mm/hr 0.00 in0.0 mm
07:15 AM 38.1°F3.4°C 36.8°F2.7°C 95% 3.0 mph WSW4.8 kmh WSW 5.0 mph8.0 kmh 30.21 in1023.0 mb 0.00 in0.0 mm 0.00 in/hr0.0 mm/hr 0.00 in0.0 mm
07:30 AM 38.3°F3.5°C 37.0°F2.8°C 95% 3.0 mph W4.8 kmh W 7.0 mph11.3 kmh 30.22 in1023.4 mb 0.00 in0.0 mm 0.00 in/hr0.0 mm/hr 0.00 in0.0 mm
07:45 AM 38.7°F3.7°C 37.4°F3.0°C 95% 2.0 mph WSW3.2 kmh WSW 3.0 mph4.8 kmh 30.21 in1023.0 mb 0.00 in0.0 mm 0.00 in/hr0.0 mm/hr 0.00 in0.0 mm
08:01 AM 39.8°F4.3°C 38.2°F3.4°C 94% 1.0 mph WSW1.6 kmh WSW 2.0 mph3.2 kmh 30.21 in1023.0 mb 0.00 in0.0 mm 0.00 in/hr0.0 mm/hr 0.00 in0.0 mm
08:15 AM 40.0°F4.4°C 38.7°F3.7°C 95% 3.0 mph WNW4.8 kmh WNW 3.0 mph4.8 kmh 30.21 in1023.0 mb 0.00 in0.0 mm 0.00 in/hr0.0 mm/hr 0.00 in0.0 mm
08:30 AM 39.8°F4.3°C 38.0°F3.3°C 93% 2.0 mph NW3.2 kmh NW 4.0 mph6.4 kmh 30.22 in1023.4 mb 0.00 in0.0 mm 0.00 in/hr0.0 mm/hr 0.00 in0.0 mm
08:45 AM 39.2°F4.0°C 37.6°F3.1°C 94% Calm Calm 1.0 mph1.6 kmh 30.22 in1023.4 mb 0.00 in0.0 mm 0.00 in/hr0.0 mm/hr 0.00 in0.0 mm
09:01 AM 39.3°F4.1°C 37.7°F3.2°C 94% 1.0 mph NW1.6 kmh NW 3.0 mph4.8 kmh 30.23 in1023.7 mb 0.00 in0.0 mm 0.00 in/hr0.0 mm/hr 0.00 in0.0 mm
09:15 AM 39.8°F4.3°C 38.2°F3.4°C 94% 1.0 mph WSW1.6 kmh WSW 3.0 mph4.8 kmh 30.22 in1023.4 mb 0.00 in0.0 mm 0.00 in/hr0.0 mm/hr 0.00 in0.0 mm
09:30 AM 40.5°F4.7°C 38.9°F3.8°C 94% Calm Calm 3.0 mph4.8 kmh 30.23 in1023.7 mb 0.00 in0.0 mm 0.00 in/hr0.0 mm/hr 0.00 in0.0 mm
09:45 AM 41.4°F5.2°C 39.5°F4.2°C 93% 2.0 mph WSW3.2 kmh WSW 2.0 mph3.2 kmh 30.23 in1023.7 mb 0.00 in0.0 mm 0.00 in/hr0.0 mm/hr 0.00 in0.0 mm
10:01 AM 42.1°F5.6°C 40.2°F4.6°C 93% 4.0 mph SW6.4 kmh SW 4.0 mph6.4 kmh 30.23 in1023.7 mb 0.00 in0.0 mm 0.00 in/hr0.0 mm/hr 0.00 in0.0 mm
10:15 AM 44.1°F6.7°C 41.9°F5.5°C 92% 5.0 mph WSW8.0 kmh WSW 7.0 mph11.3 kmh 30.22 in1023.4 mb 0.00 in0.0 mm 0.00 in/hr0.0 mm/hr 0.00 in0.0 mm
10:30 AM 46.3°F7.9°C 43.0°F6.1°C 88% 12.0 mph S19.3 kmh S 12.0 mph19.3 kmh 30.22 in1023.4 mb 0.00 in0.0 mm 0.00 in/hr0.0 mm/hr 0.00 in0.0 mm
10:45 AM 46.5°F8.1°C 43.1°F6.2°C 88% 11.0 mph S17.7 kmh S 14.0 mph22.5 kmh 30.23 in1023.7 mb 0.00 in0.0 mm 0.00 in/hr0.0 mm/hr 0.00 in0.0 mm
11:01 AM 46.8°F8.2°C 43.1°F6.2°C 87% 12.0 mph S19.3 kmh S 14.0 mph22.5 kmh 30.23 in1023.7 mb 0.00 in0.0 mm 0.00 in/hr0.0 mm/hr 0.00 in0.0 mm
11:15 AM 46.7°F8.2°C 43.0°F6.1°C 87% 14.0 mph S22.5 kmh S 15.0 mph24.1 kmh 30.22 in1023.4 mb 0.00 in0.0 mm 0.00 in/hr0.0 mm/hr 0.00 in0.0 mm
11:31 AM 46.7°F8.2°C 42.7°F5.9°C 86% 10.0 mph SSW16.1 kmh SSW 16.0 mph25.7 kmh 30.22 in1023.4 mb 0.00 in0.0 mm 0.00 in/hr0.0 mm/hr 0.00 in0.0 mm
11:45 AM 46.4°F8.0°C 42.8°F6.0°C 87% 11.0 mph S17.7 kmh S 14.0 mph22.5 kmh 30.23 in1023.7 mb 0.00 in0.0 mm 0.00 in/hr0.0 mm/hr 0.00 in0.0 mm
12:01 PM 46.7°F8.2°C 43.3°F6.3°C 88% 14.0 mph S22.5 kmh S 14.0 mph22.5 kmh 30.22 in1023.4 mb 0.00 in0.0 mm 0.00 in/hr0.0 mm/hr 0.00 in0.0 mm
12:15 PM 46.8°F8.2°C 43.1°F6.2°C 87% 11.0 mph S17.7 kmh S 14.0 mph22.5 kmh 30.22 in1023.4 mb 0.00 in0.0 mm 0.00 in/hr0.0 mm/hr 0.00 in0.0 mm
12:31 PM 46.4°F8.0°C 43.3°F6.3°C 89% 12.0 mph S19.3 kmh S 13.0 mph20.9 kmh 30.22 in1023.4 mb 0.00 in0.0 mm 0.00 in/hr0.0 mm/hr 0.00 in0.0 mm
12:45 PM 46.4°F8.0°C 43.3°F6.3°C 89% 11.0 mph S17.7 kmh S 15.0 mph24.1 kmh 30.21 in1023.0 mb 0.00 in0.0 mm 0.00 in/hr0.0 mm/hr 0.00 in0.0 mm
01:01 PM 46.6°F8.1°C 43.5°F6.4°C 89% 10.0 mph S16.1 kmh S 14.0 mph22.5 kmh 30.21 in1023.0 mb 0.00 in0.0 mm 0.00 in/hr0.0 mm/hr 0.00 in0.0 mm
01:16 PM 46.7°F8.2°C 43.6°F6.4°C 89% 10.0 mph S16.1 kmh S 15.0 mph24.1 kmh 30.19 in1022.4 mb 0.00 in0.0 mm 0.00 in/hr0.0 mm/hr 0.00 in0.0 mm
01:30 PM 46.7°F8.2°C 43.3°F6.3°C 88% 11.0 mph S17.7 kmh S 15.0 mph24.1 kmh 30.19 in1022.4 mb 0.00 in0.0 mm 0.00 in/hr0.0 mm/hr 0.00 in0.0 mm
01:46 PM 47.0°F8.3°C 43.3°F6.3°C 87% 10.0 mph S16.1 kmh S 14.0 mph22.5 kmh 30.19 in1022.4 mb 0.00 in0.0 mm 0.00 in/hr0.0 mm/hr 0.00 in0.0 mm
02:01 PM 47.6°F8.7°C 44.5°F6.9°C 89% 9.0 mph S14.5 kmh S 12.0 mph19.3 kmh 30.18 in1022.0 mb 0.00 in0.0 mm 0.00 in/hr0.0 mm/hr 0.00 in0.0 mm
02:15 PM 47.4°F8.6°C 43.4°F6.3°C 86% 15.0 mph S24.1 kmh S 15.0 mph24.1 kmh 30.17 in1021.7 mb 0.00 in0.0 mm 0.00 in/hr0.0 mm/hr 0.00 in0.0 mm
02:31 PM 48.5°F9.2°C 43.6°F6.4°C 83% 11.0 mph S17.7 kmh S 15.0 mph24.1 kmh 30.17 in1021.7 mb 0.00 in0.0 mm 0.00 in/hr0.0 mm/hr 0.00 in0.0 mm
02:46 PM 48.7°F9.3°C 43.8°F6.6°C 83% 12.0 mph S19.3 kmh S 16.0 mph25.7 kmh 30.17 in1021.7 mb 0.00 in0.0 mm 0.00 in/hr0.0 mm/hr 0.00 in0.0 mm
03:01 PM 48.8°F9.3°C 43.9°F6.6°C 83% 10.0 mph S16.1 kmh S 16.0 mph25.7 kmh 30.16 in1021.3 mb 0.00 in0.0 mm 0.00 in/hr0.0 mm/hr 0.00 in0.0 mm
03:16 PM 49.2°F9.6°C 43.6°F6.4°C 81% 11.0 mph S17.7 kmh S 16.0 mph25.7 kmh 30.16 in1021.3 mb 0.00 in0.0 mm 0.00 in/hr0.0 mm/hr 0.00 in0.0 mm
03:31 PM 49.4°F9.7°C 43.8°F6.6°C 81% 9.0 mph S14.5 kmh S 13.0 mph20.9 kmh 30.16 in1021.3 mb 0.00 in0.0 mm 0.00 in/hr0.0 mm/hr 0.00 in0.0 mm
03:46 PM 49.6°F9.8°C 43.4°F6.3°C 79% 9.0 mph S14.5 kmh S 12.0 mph19.3 kmh 30.16 in1021.3 mb 0.00 in0.0 mm 0.00 in/hr0.0 mm/hr 0.00 in0.0 mm
04:01 PM 49.7°F9.8°C 43.5°F6.4°C 79% 10.0 mph S16.1 kmh S 12.0 mph19.3 kmh 30.15 in1021.0 mb 0.00 in0.0 mm 0.00 in/hr0.0 mm/hr 0.00 in0.0 mm
04:16 PM 50.0°F10.0°C 43.8°F6.6°C 79% 8.0 mph S12.9 kmh S 11.0 mph17.7 kmh 30.15 in1021.0 mb 0.00 in0.0 mm 0.00 in/hr0.0 mm/hr 0.00 in0.0 mm
04:30 PM 50.3°F10.2°C 44.4°F6.9°C 80% 8.0 mph S12.9 kmh S 11.0 mph17.7 kmh 30.15 in1021.0 mb 0.00 in0.0 mm 0.00 in/hr0.0 mm/hr 0.00 in0.0 mm
04:46 PM 51.2°F10.7°C 44.6°F7.0°C 78% 10.0 mph S16.1 kmh S 11.0 mph17.7 kmh 30.15 in1021.0 mb 0.00 in0.0 mm 0.00 in/hr0.0 mm/hr 0.00 in0.0 mm
05:02 PM 51.5°F10.8°C 44.2°F6.8°C 76% 8.0 mph S12.9 kmh S 12.0 mph19.3 kmh 30.15 in1021.0 mb 0.00 in0.0 mm 0.00 in/hr0.0 mm/hr 0.00 in0.0 mm
05:16 PM 51.9°F11.1°C 44.2°F6.8°C 75% 7.0 mph SW11.3 kmh SW 10.0 mph16.1 kmh 30.15 in1021.0 mb 0.00 in0.0 mm 0.00 in/hr0.0 mm/hr 0.00 in0.0 mm
05:30 PM 51.9°F11.1°C 44.6°F7.0°C 76% 5.0 mph S8.0 kmh S 9.0 mph14.5 kmh 30.15 in1021.0 mb 0.00 in0.0 mm 0.00 in/hr0.0 mm/hr 0.00 in0.0 mm
05:45 PM 51.5°F10.8°C 44.9°F7.2°C 78% 5.0 mph SSW8.0 kmh SSW 6.0 mph9.7 kmh 30.15 in1021.0 mb 0.00 in0.0 mm 0.00 in/hr0.0 mm/hr 0.00 in0.0 mm
06:01 PM 51.3°F10.7°C 45.0°F7.2°C 79% 5.0 mph S8.0 kmh S 7.0 mph11.3 kmh 30.14 in1020.7 mb 0.00 in0.0 mm 0.00 in/hr0.0 mm/hr 0.00 in0.0 mm
06:15 PM 50.6°F10.3°C 45.6°F7.6°C 83% 4.0 mph S6.4 kmh S 6.0 mph9.7 kmh 30.14 in1020.7 mb 0.00 in0.0 mm 0.00 in/hr0.0 mm/hr 0.00 in0.0 mm
06:31 PM 50.2°F10.1°C 45.6°F7.6°C 84% 3.0 mph S4.8 kmh S 5.0 mph8.0 kmh 30.13 in1020.3 mb 0.00 in0.0 mm 0.00 in/hr0.0 mm/hr 0.00 in0.0 mm
06:46 PM 50.1°F10.1°C 45.2°F7.3°C 83% 4.0 mph S6.4 kmh S 5.0 mph8.0 kmh 30.13 in1020.3 mb 0.00 in0.0 mm 0.00 in/hr0.0 mm/hr 0.00 in0.0 mm
07:02 PM 49.9°F9.9°C 45.6°F7.6°C 85% 4.0 mph S6.4 kmh S 5.0 mph8.0 kmh 30.13 in1020.3 mb 0.00 in0.0 mm 0.00 in/hr0.0 mm/hr 0.00 in0.0 mm
07:15 PM 49.7°F9.8°C 46.3°F7.9°C 88% 4.0 mph SE6.4 kmh SE 5.0 mph8.0 kmh 30.13 in1020.3 mb 0.00 in0.0 mm 0.00 in/hr0.0 mm/hr 0.00 in0.0 mm
07:31 PM 49.0°F9.4°C 46.2°F7.9°C 90% 4.0 mph SE6.4 kmh SE 5.0 mph8.0 kmh 30.13 in1020.3 mb 0.00 in0.0 mm 0.00 in/hr0.0 mm/hr 0.00 in0.0 mm
07:45 PM 48.7°F9.3°C 46.5°F8.1°C 92% 3.0 mph SE4.8 kmh SE 4.0 mph6.4 kmh 30.13 in1020.3 mb 0.00 in0.0 mm 0.00 in/hr0.0 mm/hr 0.00 in0.0 mm
08:01 PM 49.3°F9.6°C 46.2°F7.9°C 89% 3.0 mph S4.8 kmh S 5.0 mph8.0 kmh 30.13 in1020.3 mb 0.00 in0.0 mm 0.00 in/hr0.0 mm/hr 0.00 in0.0 mm
08:16 PM 49.8°F9.9°C 46.1°F7.8°C 87% 5.0 mph SW8.0 kmh SW 6.0 mph9.7 kmh 30.14 in1020.7 mb 0.00 in0.0 mm 0.00 in/hr0.0 mm/hr 0.00 in0.0 mm
08:30 PM 49.9°F9.9°C 46.5°F8.1°C 88% 4.0 mph S6.4 kmh S 5.0 mph8.0 kmh 30.13 in1020.3 mb 0.00 in0.0 mm 0.00 in/hr0.0 mm/hr 0.00 in0.0 mm
08:45 PM 49.6°F9.8°C 46.8°F8.2°C 90% 3.0 mph S4.8 kmh S 4.0 mph6.4 kmh 30.13 in1020.3 mb 0.00 in0.0 mm 0.00 in/hr0.0 mm/hr 0.00 in0.0 mm
09:01 PM 49.7°F9.8°C 45.7°F7.6°C 86% 8.0 mph S12.9 kmh S 8.0 mph12.9 kmh 30.13 in1020.3 mb 0.00 in0.0 mm 0.00 in/hr0.0 mm/hr 0.00 in0.0 mm
09:16 PM 50.5°F10.3°C 45.5°F7.5°C 83% 7.0 mph S11.3 kmh S 9.0 mph14.5 kmh 30.14 in1020.7 mb 0.00 in0.0 mm 0.00 in/hr0.0 mm/hr 0.00 in0.0 mm
09:31 PM 50.4°F10.2°C 45.4°F7.4°C 83% 6.0 mph S9.7 kmh S 9.0 mph14.5 kmh 30.14 in1020.7 mb 0.00 in0.0 mm 0.00 in/hr0.0 mm/hr 0.00 in0.0 mm
09:46 PM 50.6°F10.3°C 45.3°F7.4°C 82% 8.0 mph S12.9 kmh S 11.0 mph17.7 kmh 30.14 in1020.7 mb 0.00 in0.0 mm 0.00 in/hr0.0 mm/hr 0.00 in0.0 mm
10:01 PM 50.5°F10.3°C 45.5°F7.5°C 83% 9.0 mph SSW14.5 kmh SSW 11.0 mph17.7 kmh 30.14 in1020.7 mb 0.00 in0.0 mm 0.00 in/hr0.0 mm/hr 0.00 in0.0 mm
10:15 PM 50.3°F10.2°C 45.3°F7.4°C 83% 7.0 mph S11.3 kmh S 10.0 mph16.1 kmh 30.14 in1020.7 mb 0.00 in0.0 mm 0.00 in/hr0.0 mm/hr 0.00 in0.0 mm
10:31 PM 50.4°F10.2°C 45.4°F7.4°C 83% 10.0 mph S16.1 kmh S 12.0 mph19.3 kmh 30.14 in1020.7 mb 0.00 in0.0 mm 0.00 in/hr0.0 mm/hr 0.00 in0.0 mm
10:46 PM 50.3°F10.2°C 45.0°F7.2°C 82% 10.0 mph S16.1 kmh S 13.0 mph20.9 kmh 30.14 in1020.7 mb 0.00 in0.0 mm 0.00 in/hr0.0 mm/hr 0.00 in0.0 mm
11:01 PM 50.2°F10.1°C 45.2°F7.3°C 83% 8.0 mph S12.9 kmh S 12.0 mph19.3 kmh 30.13 in1020.3 mb 0.00 in0.0 mm 0.00 in/hr0.0 mm/hr 0.00 in0.0 mm
11:15 PM 50.1°F10.1°C 45.2°F7.3°C 83% 8.0 mph S12.9 kmh S 13.0 mph20.9 kmh 30.13 in1020.3 mb 0.00 in0.0 mm 0.00 in/hr0.0 mm/hr 0.00 in0.0 mm
11:31 PM 50.0°F10.0°C 45.4°F7.4°C 84% 9.0 mph SSW14.5 kmh SSW 12.0 mph19.3 kmh 30.13 in1020.3 mb 0.00 in0.0 mm 0.00 in/hr0.0 mm/hr 0.00 in0.0 mm
11:45 PM 49.9°F9.9°C 45.6°F7.6°C 85% 7.0 mph S11.3 kmh S 10.0 mph16.1 kmh 30.12 in1020.0 mb 0.00 in0.0 mm 0.00 in/hr0.0 mm/hr 0.00 in0.0 mm